createdAt,value
2018-02-14T00:02:22.262Z,6.67
2018-02-14T00:04:49.950Z,6.33
2018-02-14T00:07:17.574Z,8.47
2018-02-14T00:09:45.175Z,6.00
2018-02-14T00:12:13.563Z,6.23
2018-02-14T00:14:42.022Z,7.63
2018-02-14T00:17:10.375Z,5.93
2018-02-14T00:19:38.058Z,5.03
2018-02-14T00:22:05.724Z,5.97
2018-02-14T00:24:33.355Z,7.50
2018-02-14T00:27:01.761Z,7.63
2018-02-14T00:29:29.409Z,6.50
2018-02-14T00:31:57.053Z,6.23
2018-02-14T00:34:24.691Z,5.50
2018-02-14T00:36:52.316Z,6.80
2018-02-14T00:39:19.950Z,7.97
2018-02-14T00:41:47.585Z,7.43
2018-02-14T00:44:16.018Z,6.40
2018-02-14T00:46:43.646Z,6.53
2018-02-14T00:49:11.275Z,4.97
2018-02-14T00:51:38.884Z,6.23
2018-02-14T00:54:06.562Z,5.93
2018-02-14T00:56:34.156Z,5.20
2018-02-14T00:59:02.555Z,5.77
2018-02-14T01:01:30.192Z,5.67
2018-02-14T01:03:57.842Z,5.73
2018-02-14T01:06:25.460Z,6.17
2018-02-14T01:08:53.849Z,5.93
2018-02-14T01:11:22.261Z,6.77
2018-02-14T01:13:49.928Z,5.83
2018-02-14T01:16:30.941Z,7.03
2018-02-14T01:18:58.546Z,4.87
2018-02-14T01:21:26.397Z,6.07
2018-02-14T01:23:54.016Z,6.93
2018-02-14T01:26:22.430Z,6.53
2018-02-14T01:28:50.809Z,7.37
2018-02-14T01:31:19.240Z,5.33
2018-02-14T01:33:46.852Z,6.70
2018-02-14T01:36:14.474Z,5.93
2018-02-14T01:38:42.094Z,6.53
2018-02-14T01:41:09.738Z,6.47
2018-02-14T01:43:37.365Z,5.27
2018-02-14T01:46:05.766Z,7.03
2018-02-14T01:48:34.154Z,7.33
2018-02-14T01:51:02.548Z,5.70
2018-02-14T01:53:30.932Z,6.00
2018-02-14T01:55:59.334Z,5.57
2018-02-14T01:58:27.758Z,6.10
2018-02-14T02:00:55.387Z,6.57
2018-02-14T02:03:23.098Z,6.03
2018-02-14T02:05:50.755Z,6.17
2018-02-14T02:08:18.370Z,6.47
2018-02-14T02:10:45.990Z,6.23
2018-02-14T02:13:14.373Z,5.83
2018-02-14T02:15:42.778Z,6.43
2018-02-14T02:18:11.172Z,7.73
2018-02-14T02:20:39.588Z,6.03
2018-02-14T02:23:07.196Z,5.87
2018-02-14T02:25:34.837Z,6.20
2018-02-14T02:28:02.511Z,8.17
2018-02-14T02:30:30.142Z,6.37
2018-02-14T02:32:58.540Z,7.53
2018-02-14T02:35:26.938Z,5.43
2018-02-14T02:37:58.670Z,6.43
2018-02-14T02:40:32.218Z,7.43
2018-02-14T02:43:00.630Z,6.20
2018-02-14T02:45:28.267Z,6.03
2018-02-14T02:47:55.861Z,7.00
2018-02-14T02:50:23.486Z,6.90
2018-02-14T02:52:51.105Z,7.33
2018-02-14T02:55:18.756Z,7.17
2018-02-14T02:57:47.146Z,6.30
2018-02-14T03:00:15.529Z,5.57
2018-02-14T03:02:43.149Z,6.43
2018-02-14T03:05:10.777Z,5.50
2018-02-14T03:07:38.547Z,6.77
2018-02-14T03:10:06.976Z,5.53
2018-02-14T03:12:35.379Z,6.43
2018-02-14T03:15:02.983Z,7.13
2018-02-14T03:17:30.648Z,6.03
2018-02-14T03:19:58.315Z,6.63
2018-02-14T03:22:25.983Z,7.17
2018-02-14T03:24:53.579Z,5.50
2018-02-14T03:27:21.205Z,5.70
2018-02-14T03:29:49.610Z,5.97
2018-02-14T03:32:17.234Z,6.30
2018-02-14T03:34:44.833Z,7.10
2018-02-14T03:37:13.265Z,7.20
2018-02-14T03:39:40.933Z,4.80
2018-02-14T03:42:08.588Z,5.60
2018-02-14T03:44:36.972Z,7.50
2018-02-14T03:47:05.354Z,5.13
2018-02-14T03:49:33.728Z,5.23
2018-02-14T03:52:01.359Z,6.53
2018-02-14T03:54:29.009Z,6.03
2018-02-14T03:56:57.397Z,7.53
2018-02-14T03:59:25.833Z,5.47
2018-02-14T04:01:53.501Z,5.30
2018-02-14T04:04:21.121Z,4.97
2018-02-14T04:06:49.493Z,4.37
2018-02-14T04:09:36.223Z,5.70
2018-02-14T04:12:03.862Z,5.57
2018-02-14T04:14:31.505Z,5.37
2018-02-14T04:16:59.138Z,6.07
2018-02-14T04:19:26.756Z,6.30
2018-02-14T04:21:54.423Z,7.27
2018-02-14T04:24:22.780Z,7.50
2018-02-14T04:26:50.400Z,5.03
2018-02-14T04:29:18.015Z,5.43
2018-02-14T04:31:45.644Z,4.43
2018-02-14T04:34:13.228Z,5.07
2018-02-14T04:39:48.504Z,4.40
2018-02-14T04:42:16.124Z,5.87
2018-02-14T04:44:43.740Z,4.67
2018-02-14T04:47:11.381Z,4.87
2018-02-14T04:49:39.759Z,5.60
2018-02-14T04:52:07.397Z,5.00
2018-02-14T04:54:35.015Z,4.83
2018-02-14T04:57:02.852Z,4.40
2018-02-14T04:59:30.494Z,6.60
2018-02-14T05:01:58.916Z,6.80
2018-02-14T05:04:26.520Z,6.57
2018-02-14T05:06:54.124Z,4.50
2018-02-14T05:09:22.483Z,5.20
2018-02-14T05:11:50.146Z,5.63
2018-02-14T05:14:18.107Z,6.13
2018-02-14T05:16:45.806Z,5.83
2018-02-14T05:19:13.420Z,6.60
2018-02-14T05:21:41.895Z,5.87
2018-02-14T05:24:09.481Z,6.53
2018-02-14T05:26:37.873Z,4.97
2018-02-14T05:29:06.240Z,4.90
2018-02-14T05:31:33.913Z,5.47
2018-02-14T05:34:01.594Z,17.10
2018-02-14T05:36:29.235Z,12.63
2018-02-14T05:41:52.452Z,9.88
2018-02-14T05:44:20.073Z,8.13
2018-02-14T05:46:47.711Z,7.90
2018-02-14T05:49:16.837Z,7.17
2018-02-14T05:51:45.241Z,3.97
2018-02-14T05:54:13.630Z,5.43
2018-02-14T05:56:42.016Z,5.90
2018-02-14T06:02:06.049Z,4.23
2018-02-14T06:04:34.488Z,5.97
2018-02-14T06:07:02.133Z,5.03
2018-02-14T06:09:29.724Z,6.07
2018-02-14T06:11:57.345Z,6.27
2018-02-14T06:14:24.933Z,5.37
2018-02-14T06:16:53.324Z,6.43
2018-02-14T06:19:21.705Z,6.97
2018-02-14T06:22:05.469Z,6.03
2018-02-14T06:24:33.881Z,5.47
2018-02-14T06:27:01.525Z,7.13
2018-02-14T06:29:29.960Z,7.37
2018-02-14T06:31:58.392Z,7.10
2018-02-14T06:34:26.022Z,6.37
2018-02-14T06:36:53.689Z,7.03
2018-02-14T06:39:21.372Z,5.87
2018-02-14T06:41:48.997Z,5.23
2018-02-14T06:44:35.290Z,7.47
2018-02-14T06:47:02.934Z,6.30
2018-02-14T06:49:30.550Z,6.97
2018-02-14T06:51:58.283Z,7.17
2018-02-14T06:54:25.945Z,8.33
2018-02-14T06:56:53.601Z,5.93
2018-02-14T06:59:21.229Z,8.30
2018-02-14T07:01:48.881Z,7.77
2018-02-14T07:04:16.485Z,7.73
2018-02-14T07:06:44.154Z,6.07
2018-02-14T07:09:11.829Z,7.30
2018-02-14T07:11:39.479Z,8.47
2018-02-14T07:14:16.974Z,6.00
2018-02-14T07:16:44.564Z,7.07
2018-02-14T07:19:12.166Z,8.17
2018-02-14T07:21:39.765Z,7.17
2018-02-14T07:24:07.407Z,7.67
2018-02-14T07:26:35.036Z,6.53
2018-02-14T07:29:02.652Z,5.87
2018-02-14T07:31:31.793Z,7.10
2018-02-14T07:33:59.428Z,7.33
2018-02-14T07:36:27.283Z,7.37
2018-02-14T07:38:55.053Z,7.40
2018-02-14T07:41:23.589Z,8.57
2018-02-14T07:43:51.994Z,8.77
2018-02-14T07:46:19.612Z,9.13
2018-02-14T07:48:47.235Z,8.83
2018-02-14T07:51:14.836Z,9.13
2018-02-14T07:53:42.491Z,8.93
2018-02-14T07:56:10.145Z,10.03
2018-02-14T07:58:37.767Z,10.60
2018-02-14T08:01:05.453Z,10.67
2018-02-14T08:03:33.084Z,10.17
2018-02-14T08:06:01.480Z,7.30
2018-02-14T08:08:29.875Z,9.67
2018-02-14T08:10:58.312Z,8.43
2018-02-14T08:13:25.915Z,3.57
2018-02-14T08:15:53.529Z,6.83
2018-02-14T08:18:21.155Z,4.83
2018-02-14T08:20:48.813Z,7.97
2018-02-14T08:26:25.068Z,9.27
2018-02-14T08:28:53.453Z,5.10
2018-02-14T08:31:21.832Z,7.70
2018-02-14T08:33:49.471Z,7.57
2018-02-14T08:36:17.084Z,7.83
2018-02-14T08:38:44.699Z,7.80
2018-02-14T08:41:12.343Z,7.63
2018-02-14T08:43:40.732Z,8.83
2018-02-14T08:46:09.265Z,16.40
2018-02-14T08:48:36.892Z,11.07
2018-02-14T08:51:04.501Z,11.90
2018-02-14T08:53:32.121Z,9.53
2018-02-14T08:55:59.729Z,10.90
2018-02-14T08:58:28.125Z,7.33
2018-02-14T09:00:55.723Z,9.30
2018-02-14T09:03:23.363Z,11.10
2018-02-14T09:05:51.758Z,10.10
2018-02-14T09:08:20.152Z,7.93
2018-02-14T09:13:48.093Z,11.80
2018-02-14T09:16:15.762Z,10.40
2018-02-14T09:18:43.389Z,13.30
2018-02-14T09:21:11.013Z,9.33
2018-02-14T09:23:44.284Z,9.57
2018-02-14T09:26:12.710Z,9.87
2018-02-14T09:28:40.340Z,10.40
2018-02-14T09:31:08.677Z,10.73
2018-02-14T09:33:43.929Z,13.43
2018-02-14T09:36:11.536Z,12.00
2018-02-14T09:38:39.205Z,13.40
2018-02-14T09:41:06.813Z,13.63
2018-02-14T09:43:41.663Z,12.73
2018-02-14T09:46:10.081Z,12.37
2018-02-14T09:48:37.696Z,12.97
2018-02-14T09:51:06.065Z,10.37
2018-02-14T09:53:33.731Z,10.60
2018-02-14T09:56:01.354Z,11.37
2018-02-14T09:58:29.829Z,10.83
2018-02-14T10:00:57.414Z,10.63
2018-02-14T10:03:25.813Z,12.57
2018-02-14T10:05:54.248Z,12.23
2018-02-14T10:08:21.865Z,12.80
2018-02-14T10:10:50.271Z,12.53
2018-02-14T10:13:18.698Z,13.07
2018-02-14T10:15:46.310Z,9.83
2018-02-14T10:18:13.972Z,9.87
2018-02-14T10:20:41.641Z,12.53
2018-02-14T10:23:09.318Z,12.13
2018-02-14T10:25:37.120Z,11.67
2018-02-14T10:28:04.844Z,16.10
2018-02-14T10:30:32.453Z,12.77
2018-02-14T10:33:00.062Z,12.57
2018-02-14T10:35:28.437Z,13.50
2018-02-14T10:37:56.059Z,12.27
2018-02-14T10:40:23.649Z,11.30
2018-02-14T10:42:51.280Z,11.77
2018-02-14T10:45:18.868Z,12.43
2018-02-14T10:47:46.461Z,11.63
2018-02-14T10:50:14.905Z,12.40
2018-02-14T10:52:47.247Z,11.43
2018-02-14T10:55:14.889Z,11.40
2018-02-14T10:57:42.534Z,12.90
2018-02-14T11:00:10.944Z,11.47
2018-02-14T11:02:44.335Z,12.23
2018-02-14T11:05:18.444Z,11.93
2018-02-14T11:07:46.028Z,12.60
2018-02-14T11:10:14.444Z,12.33
2018-02-14T11:12:42.108Z,12.50
2018-02-14T11:15:10.518Z,12.77
2018-02-14T11:17:38.132Z,11.37
2018-02-14T11:20:05.765Z,12.17
2018-02-14T11:22:33.398Z,12.13
2018-02-14T11:25:01.009Z,12.33
2018-02-14T11:27:28.608Z,12.27
2018-02-14T11:29:56.233Z,11.97
2018-02-14T11:32:24.613Z,10.87
2018-02-14T11:34:53.012Z,12.20
2018-02-14T11:37:40.525Z,11.77
2018-02-14T11:40:08.180Z,11.53
2018-02-14T11:42:35.793Z,12.80
2018-02-14T11:45:04.208Z,11.87
2018-02-14T11:47:31.892Z,12.20
2018-02-14T11:49:59.523Z,12.03
2018-02-14T11:52:27.124Z,13.50
2018-02-14T11:54:55.505Z,13.10
2018-02-14T11:57:23.130Z,13.17
2018-02-14T11:59:50.789Z,13.83
2018-02-14T12:02:18.453Z,12.67
2018-02-14T12:04:46.061Z,12.23
2018-02-14T12:07:13.704Z,12.73
2018-02-14T12:09:41.364Z,12.10
2018-02-14T12:12:09.831Z,13.07
2018-02-14T12:14:37.418Z,14.33
2018-02-14T12:17:05.077Z,11.43
2018-02-14T12:19:33.426Z,12.83
2018-02-14T12:22:01.112Z,13.30
2018-02-14T12:24:28.727Z,12.77
2018-02-14T12:26:56.397Z,11.43
2018-02-14T12:29:24.783Z,11.27
2018-02-14T12:32:08.028Z,10.83
2018-02-14T12:34:36.452Z,11.43
2018-02-14T12:37:04.081Z,11.70
2018-02-14T12:39:31.712Z,12.03
2018-02-14T12:41:59.368Z,12.40
2018-02-14T12:44:27.003Z,10.50
2018-02-14T12:46:55.401Z,11.83
2018-02-14T12:49:23.018Z,12.47
2018-02-14T12:51:50.649Z,11.77
2018-02-14T12:54:19.178Z,11.60
2018-02-14T12:56:46.852Z,10.77
2018-02-14T12:59:14.477Z,10.40
2018-02-14T13:01:42.146Z,11.77
2018-02-14T13:04:09.766Z,11.67
2018-02-14T13:06:37.429Z,11.40
2018-02-14T13:09:05.114Z,12.03
2018-02-14T13:11:32.764Z,12.27
2018-02-14T13:14:01.148Z,11.77
2018-02-14T13:16:29.558Z,11.93
2018-02-14T13:18:57.202Z,11.47
2018-02-14T13:21:24.840Z,11.57
2018-02-14T13:23:52.457Z,11.83
2018-02-14T13:26:20.870Z,11.77
2018-02-14T13:28:48.464Z,12.03
2018-02-14T13:31:16.085Z,11.87
2018-02-14T13:33:43.677Z,12.30
2018-02-14T13:36:12.093Z,12.00
2018-02-14T13:38:39.716Z,12.23
2018-02-14T13:41:09.216Z,12.67
2018-02-14T13:43:36.815Z,9.13
2018-02-14T13:46:04.519Z,9.27
2018-02-14T13:48:32.132Z,11.07
2018-02-14T13:50:59.767Z,11.57
2018-02-14T13:53:27.440Z,11.00
2018-02-14T13:55:55.058Z,9.60
2018-02-14T13:58:22.651Z,11.00
2018-02-14T14:00:50.332Z,10.30
2018-02-14T14:03:17.999Z,11.17
2018-02-14T14:05:45.612Z,11.67
2018-02-14T14:08:13.240Z,11.93
2018-02-14T14:10:41.004Z,10.20
2018-02-14T14:13:08.630Z,10.70
2018-02-14T14:15:36.287Z,9.53
2018-02-14T14:18:04.669Z,11.00
2018-02-14T14:20:33.107Z,11.97
2018-02-14T14:23:00.746Z,11.30
2018-02-14T14:25:29.120Z,12.67
2018-02-14T14:27:56.752Z,11.50
2018-02-14T14:30:24.393Z,12.83
2018-02-14T14:32:52.020Z,12.50
2018-02-14T14:35:19.645Z,13.23
2018-02-14T14:37:47.261Z,11.10
2018-02-14T14:40:31.484Z,11.47
2018-02-14T14:42:59.129Z,12.27
2018-02-14T14:45:26.709Z,11.33
2018-02-14T14:47:55.096Z,12.90
2018-02-14T14:50:23.526Z,12.10
2018-02-14T14:52:51.159Z,13.07
2018-02-14T14:55:19.589Z,10.93
2018-02-14T14:57:47.216Z,11.80
2018-02-14T15:00:14.909Z,11.60
2018-02-14T15:02:42.532Z,12.07
2018-02-14T15:05:10.169Z,12.53
2018-02-14T15:07:37.757Z,13.33
2018-02-14T15:10:05.396Z,11.93
2018-02-14T15:12:32.977Z,12.60
2018-02-14T15:15:07.597Z,13.03
2018-02-14T15:17:36.023Z,13.17
2018-02-14T15:20:03.636Z,13.00
2018-02-14T15:22:31.333Z,13.03
2018-02-14T15:24:58.925Z,12.67
2018-02-14T15:27:27.308Z,12.73
2018-02-14T15:29:55.688Z,11.97
2018-02-14T15:32:23.343Z,11.90
2018-02-14T15:34:51.560Z,11.93
2018-02-14T15:37:19.974Z,11.27
2018-02-14T15:39:47.560Z,11.80
2018-02-14T15:42:15.181Z,11.60
2018-02-14T15:44:42.793Z,11.77
2018-02-14T15:47:10.458Z,11.37
2018-02-14T15:49:38.262Z,11.17
2018-02-14T15:52:06.017Z,12.53
2018-02-14T15:54:33.625Z,11.93
2018-02-14T15:57:01.245Z,11.33
2018-02-14T15:59:29.617Z,13.30
2018-02-14T16:01:58.744Z,13.03
2018-02-14T16:04:27.157Z,12.07
2018-02-14T16:06:54.798Z,13.70
2018-02-14T16:09:23.173Z,11.33
2018-02-14T16:11:50.793Z,12.70
2018-02-14T16:14:18.409Z,13.17
2018-02-14T16:16:46.191Z,11.63
2018-02-14T16:19:13.800Z,10.70
2018-02-14T16:21:41.380Z,10.70
2018-02-14T16:24:09.032Z,11.70
2018-02-14T16:26:37.451Z,11.93
2018-02-14T16:29:05.085Z,11.67
2018-02-14T16:31:32.669Z,12.10
2018-02-14T16:34:01.087Z,12.67
2018-02-14T16:36:28.723Z,13.40
2018-02-14T16:38:56.354Z,21.37
2018-02-14T16:41:23.992Z,13.53
2018-02-14T16:43:51.621Z,12.37
2018-02-14T16:46:19.228Z,11.77
2018-02-14T16:48:47.627Z,12.10
2018-02-14T16:51:16.066Z,13.17
2018-02-14T16:53:43.713Z,13.13
2018-02-14T16:56:11.299Z,12.30
2018-02-14T16:58:46.773Z,11.03
2018-02-14T17:01:14.444Z,10.80
2018-02-14T17:03:42.214Z,12.07
2018-02-14T17:06:09.856Z,10.80
2018-02-14T17:08:37.480Z,10.47
2018-02-14T17:11:05.117Z,11.40
2018-02-14T17:13:32.743Z,10.80
2018-02-14T17:16:00.356Z,11.63
2018-02-14T17:18:27.983Z,11.63
2018-02-14T17:20:55.641Z,11.90
2018-02-14T17:23:23.302Z,10.03
2018-02-14T17:25:50.957Z,10.47
2018-02-14T17:28:18.610Z,12.17
2018-02-14T17:30:47.044Z,11.13
2018-02-14T17:33:14.672Z,11.67
2018-02-14T17:35:43.093Z,10.93
2018-02-14T17:38:10.768Z,10.77
2018-02-14T17:40:38.385Z,11.00
2018-02-14T17:43:05.998Z,9.37
2018-02-14T17:45:33.664Z,10.00
2018-02-14T17:48:02.061Z,11.57
2018-02-14T17:50:30.446Z,9.83
2018-02-14T17:52:58.856Z,9.67
2018-02-14T17:55:26.484Z,10.23
2018-02-14T17:57:54.222Z,10.73
2018-02-14T18:00:21.906Z,10.10
2018-02-14T18:02:50.153Z,10.10
2018-02-14T18:05:18.537Z,11.33
2018-02-14T18:07:48.939Z,13.53
2018-02-14T18:10:16.598Z,12.83
2018-02-14T18:12:44.363Z,10.53
2018-02-14T18:15:12.005Z,11.23
2018-02-14T18:20:43.789Z,10.40
2018-02-14T18:23:11.444Z,10.53
2018-02-14T18:25:39.127Z,14.03
2018-02-14T18:28:06.872Z,14.07
2018-02-14T18:30:34.548Z,12.03
2018-02-14T18:33:02.182Z,12.70
2018-02-14T18:35:30.795Z,13.70
2018-02-14T18:37:58.414Z,11.93
2018-02-14T18:40:26.033Z,12.23
2018-02-14T18:42:53.746Z,12.40
2018-02-14T18:45:21.510Z,12.47
2018-02-14T18:47:49.097Z,13.60
2018-02-14T18:50:16.768Z,10.87
2018-02-14T18:52:44.380Z,11.43
2018-02-14T18:55:12.803Z,11.37
2018-02-14T18:57:40.412Z,13.80
2018-02-14T19:00:08.036Z,11.93
2018-02-14T19:02:36.408Z,11.63
2018-02-14T19:05:04.083Z,12.57
2018-02-14T19:07:32.489Z,18.87
2018-02-14T19:10:00.927Z,21.77
2018-02-14T19:12:28.571Z,15.30
2018-02-14T19:14:56.263Z,17.17
2018-02-14T19:17:23.904Z,13.67
2018-02-14T19:19:52.461Z,20.83
2018-02-14T19:22:20.234Z,18.73
2018-02-14T19:24:47.871Z,18.33
2018-02-14T19:27:22.833Z,17.60
2018-02-14T19:29:50.501Z,18.47
2018-02-14T19:32:18.168Z,14.17
2018-02-14T19:34:45.797Z,18.30
2018-02-14T19:37:13.475Z,20.07
2018-02-14T19:39:41.202Z,19.10
2018-02-14T19:42:08.908Z,15.07
2018-02-14T19:44:36.583Z,14.00
2018-02-14T19:47:04.220Z,13.77
2018-02-14T19:49:31.874Z,13.67
2018-02-14T19:51:59.513Z,15.10
2018-02-14T19:54:27.895Z,14.30
2018-02-14T19:56:55.668Z,13.23
2018-02-14T19:59:23.414Z,14.03
2018-02-14T20:01:51.097Z,13.77
2018-02-14T20:04:18.721Z,15.43
2018-02-14T20:09:51.313Z,14.87
2018-02-14T20:12:18.964Z,14.17
2018-02-14T20:14:46.576Z,12.83
2018-02-14T20:17:14.253Z,14.63
2018-02-14T20:19:42.681Z,16.83
2018-02-14T20:22:10.290Z,14.60
2018-02-14T20:24:37.918Z,15.80
2018-02-14T20:27:06.303Z,13.63
2018-02-14T20:29:34.696Z,17.43
2018-02-14T20:32:03.121Z,14.93
2018-02-14T20:34:30.780Z,16.57
2018-02-14T20:37:11.750Z,20.10
2018-02-14T20:39:40.207Z,20.70
2018-02-14T20:42:07.869Z,19.07
2018-02-14T20:44:35.526Z,16.63
2018-02-14T20:47:10.657Z,13.37
2018-02-14T20:49:38.346Z,14.60
2018-02-14T20:52:06.029Z,17.17
2018-02-14T20:54:44.555Z,14.60
2018-02-14T20:57:12.150Z,15.13
2018-02-14T20:59:43.278Z,12.13
2018-02-14T21:02:10.895Z,13.83
2018-02-14T21:04:38.583Z,14.07
2018-02-14T21:10:00.166Z,12.57
2018-02-14T21:12:49.660Z,14.10
2018-02-14T21:15:17.363Z,12.57
2018-02-14T21:17:44.961Z,13.80
2018-02-14T21:20:12.604Z,15.10
2018-02-14T21:22:59.522Z,16.27
2018-02-14T21:25:44.406Z,14.43
2018-02-14T21:28:22.613Z,13.53
2018-02-14T21:30:50.267Z,15.23
2018-02-14T21:33:18.723Z,14.37
2018-02-14T21:35:46.582Z,12.70
2018-02-14T21:38:20.280Z,15.33
2018-02-14T21:40:47.961Z,16.10
2018-02-14T21:43:15.602Z,15.33
2018-02-14T21:45:44.927Z,16.73
2018-02-14T21:48:12.573Z,16.57
2018-02-14T21:50:40.170Z,17.30
2018-02-14T21:53:07.840Z,16.63
2018-02-14T21:55:36.269Z,18.33
2018-02-14T21:58:03.900Z,19.07
2018-02-14T22:00:32.260Z,14.00
2018-02-14T22:05:55.849Z,17.53
2018-02-14T22:08:23.488Z,16.97
2018-02-14T22:10:52.285Z,16.70
2018-02-14T22:13:20.714Z,17.53
2018-02-14T22:15:48.353Z,18.07
2018-02-14T22:18:16.758Z,14.87
2018-02-14T22:20:44.348Z,16.57
2018-02-14T22:23:12.033Z,20.33
2018-02-14T22:25:39.664Z,17.20
2018-02-14T22:28:08.117Z,14.90
2018-02-14T22:30:35.775Z,16.40
2018-02-14T22:33:13.285Z,14.57
2018-02-14T22:35:40.929Z,16.77
2018-02-14T22:38:08.520Z,16.87
2018-02-14T22:40:36.371Z,15.87
2018-02-14T22:43:04.080Z,14.87
2018-02-14T22:45:32.663Z,15.03
2018-02-14T22:48:00.476Z,14.40
2018-02-14T22:50:28.241Z,14.13
2018-02-14T22:52:55.988Z,14.27
2018-02-14T22:55:23.617Z,12.97
2018-02-14T22:57:51.280Z,13.50
2018-02-14T23:00:22.676Z,12.27
2018-02-14T23:02:51.070Z,13.93
2018-02-14T23:05:18.720Z,14.77
2018-02-14T23:07:47.106Z,13.73
2018-02-14T23:10:15.754Z,13.67
2018-02-14T23:12:43.527Z,14.17
2018-02-14T23:15:11.299Z,13.47
2018-02-14T23:17:38.943Z,14.93
2018-02-14T23:20:07.337Z,14.27
2018-02-14T23:22:35.765Z,14.40
2018-02-14T23:25:14.981Z,13.07
2018-02-14T23:27:43.505Z,12.40
2018-02-14T23:30:13.060Z,12.63
2018-02-14T23:32:42.192Z,14.23
2018-02-14T23:35:10.580Z,12.47
2018-02-14T23:37:38.967Z,14.40
2018-02-14T23:40:07.358Z,15.90
2018-02-14T23:42:35.026Z,13.90
2018-02-14T23:45:02.741Z,11.73
2018-02-14T23:47:30.459Z,14.83
2018-02-14T23:49:58.076Z,15.67
2018-02-14T23:52:25.754Z,15.27
2018-02-14T23:54:53.334Z,15.63
2018-02-14T23:57:21.002Z,12.07
2018-02-14T23:59:48.669Z,12.57
